Santa Rita, Montana
Current Conditions -  °F | °C
As of 12:56 AM on Friday 24 Oct 2014 (Local Time) from KCTB Reporting Station
Clear Clear  
Wind Chill: 39°   Ceiling: Unl
Heat Index: 48°   Visibility: 10mi
Dew Point: 30°   Wind: 36mph
Humidity: 50%   Direction: 250°WSW
Pressure: 29.79"   Gusts: 45mph
Location:  48.7°N, 112.32°W
Report Text: KCTB 240656Z AUTO 25031G39KT 10SM CLR 09/M01 A2979 RMK AO2 PK WND 25044/0633 SLP077 T00891011 401720072
Loading
Personal Weather Stations






























Interactive Weather Map
Tropical Storm Tracking
New forecast layout! Learn more

10-Day Weather Forecast

Advertisements
Track Severe Weather on mobile